Time;durP1;ratioP1;P1;durP2;ratioP2;P2;SDS_P1;SDS_P2;PMS_P1;PMS_P2;Temp;Humidity;BMP_temperature;BMP_pressure;BME280_temperature;BME280_humidity;BME280_pressure;Samples;Min_cycle;Max_cycle;Signal;HPM_P1;HPM_P2
2023/07/28 00:00:04;;;;;;;2.00;1.73;;;;;;;18.97;72.66;100452.78;5139395;27;20050;-65
2023/07/28 00:02:32;;;;;;;2.05;1.65;;;;;;;18.98;72.48;100459.03;5143903;27;20082;-65
2023/07/28 00:04:59;;;;;;;2.40;2.00;;;;;;;18.97;73.04;100454.69;5139603;27;20072;-65
2023/07/28 00:07:29;;;;;;;3.45;2.00;;;;;;;18.96;72.78;100451.16;5141749;27;20039;-65
2023/07/28 00:09:56;;;;;;;2.10;1.88;;;;;;;18.96;72.77;100442.19;5141825;27;20068;-65
2023/07/28 00:12:24;;;;;;;2.42;2.10;;;;;;;18.96;72.83;100455.78;5140485;27;20073;-65
2023/07/28 00:14:52;;;;;;;2.00;1.70;;;;;;;18.94;72.87;100447.09;5138024;27;20059;-65
2023/07/28 00:17:20;;;;;;;2.33;1.85;;;;;;;18.94;73.04;100456.09;5144040;27;20357;-65
2023/07/28 00:19:48;;;;;;;2.15;1.92;;;;;;;18.93;72.95;100449.00;5140764;27;20065;-65
2023/07/28 00:22:16;;;;;;;3.63;2.00;;;;;;;18.94;72.62;100447.91;5141779;27;20055;-65
2023/07/28 00:24:45;;;;;;;3.80;1.70;;;;;;;18.95;73.09;100446.00;5140258;27;20047;-65
2023/07/28 00:27:14;;;;;;;1.98;1.73;;;;;;;18.94;72.91;100447.91;5140042;27;20055;-65
2023/07/28 00:29:42;;;;;;;2.17;1.55;;;;;;;18.91;72.78;100443.03;5141011;27;20051;-65
2023/07/28 00:32:10;;;;;;;2.10;1.67;;;;;;;18.95;73.16;100448.72;5137179;27;20048;-65
2023/07/28 00:34:38;;;;;;;1.67;1.52;;;;;;;18.93;72.80;100446.28;5143308;27;20054;-65
2023/07/28 00:37:06;;;;;;;3.67;1.60;;;;;;;18.93;72.63;100440.03;5140465;27;20039;-65
2023/07/28 00:39:34;;;;;;;1.73;1.63;;;;;;;18.92;72.67;100446.56;5142576;27;20058;-65
2023/07/28 00:42:03;;;;;;;2.25;1.88;;;;;;;18.94;73.10;100441.66;5136655;27;20123;-64
2023/07/28 00:44:30;;;;;;;1.75;1.63;;;;;;;18.93;72.80;100440.84;5142556;27;20077;-65
2023/07/28 00:46:58;;;;;;;3.15;2.08;;;;;;;18.92;72.58;100447.38;5138046;27;20480;-65
2023/07/28 00:49:26;;;;;;;1.63;1.48;;;;;;;18.93;72.75;100449.00;5142018;27;20102;-65
2023/07/28 00:51:55;;;;;;;1.85;1.60;;;;;;;18.94;72.67;100444.38;5137468;27;20039;-65
2023/07/28 00:54:22;;;;;;;1.63;1.45;;;;;;;18.93;72.75;100445.47;5139952;27;20059;-65
2023/07/28 00:56:50;;;;;;;2.35;1.60;;;;;;;18.93;72.65;100440.84;5141515;27;20076;-65
2023/07/28 00:59:21;;;;;;;2.22;1.67;;;;;;;18.94;72.61;100444.38;5141672;27;20047;-65
2023/07/28 01:01:48;;;;;;;1.85;1.63;;;;;;;18.94;72.23;100444.38;5140472;27;20445;-65
2023/07/28 01:04:16;;;;;;;2.17;1.60;;;;;;;18.92;72.27;100441.94;5140540;27;20047;-65
2023/07/28 01:06:50;;;;;;;2.85;1.88;;;;;;;18.94;72.07;100449.81;5140315;27;20046;-65
2023/07/28 01:09:22;;;;;;;2.58;2.05;;;;;;;18.91;72.28;100448.50;5139639;27;20058;-64
2023/07/28 01:11:56;;;;;;;3.13;2.00;;;;;;;18.91;72.49;100451.22;5139879;27;20206;-65
2023/07/28 01:14:26;;;;;;;1.77;1.58;;;;;;;18.92;72.32;100449.31;5140439;27;20050;-65
2023/07/28 01:16:53;;;;;;;2.28;1.67;;;;;;;18.92;72.57;100452.84;5140323;27;20115;-65
2023/07/28 01:19:22;;;;;;;1.92;1.58;;;;;;;18.91;72.66;100448.50;5138917;27;20051;-65
2023/07/28 01:21:55;;;;;;;2.00;1.60;;;;;;;18.92;72.47;100443.84;5139368;27;20043;-64
2023/07/28 01:24:30;;;;;;;2.80;1.83;;;;;;;18.91;72.22;100440.31;5139848;27;20055;-65
2023/07/28 01:27:00;;;;;;;2.08;1.65;;;;;;;18.93;72.05;100450.94;5138592;27;20043;-65
2023/07/28 01:29:28;;;;;;;1.83;1.55;;;;;;;18.91;71.92;100442.22;5140606;27;20072;-65
2023/07/28 01:32:00;;;;;;;2.58;1.98;;;;;;;18.91;72.41;100444.94;5135846;27;20083;-65
2023/07/28 01:34:27;;;;;;;2.83;1.95;;;;;;;18.91;71.95;100443.03;5140959;27;20043;-64
2023/07/28 01:36:55;;;;;;;1.85;1.60;;;;;;;18.90;72.27;100433.25;5141235;27;20039;-65
2023/07/28 01:39:23;;;;;;;1.73;1.63;;;;;;;18.90;72.16;100446.88;5140551;27;20053;-65
2023/07/28 01:41:51;;;;;;;2.28;2.00;;;;;;;18.90;72.54;100443.31;5140039;27;20043;-64
2023/07/28 01:44:20;;;;;;;2.83;2.13;;;;;;;18.89;72.98;100444.44;5139633;27;20044;-65
2023/07/28 01:46:48;;;;;;;3.38;2.20;;;;;;;18.88;73.04;100448.25;5134116;27;20546;-65
2023/07/28 01:49:15;;;;;;;3.70;2.20;;;;;;;18.87;73.18;100450.16;5134045;27;20047;-64
2023/07/28 01:51:43;;;;;;;3.10;2.13;;;;;;;18.87;72.97;100450.16;5140513;27;20757;-65
2023/07/28 01:54:11;;;;;;;2.45;1.95;;;;;;;18.84;73.35;100448.00;5141871;27;20051;-64
2023/07/28 01:56:39;;;;;;;2.63;2.38;;;;;;;18.85;73.39;100453.16;5137866;27;20043;-64
2023/07/28 01:59:06;;;;;;;2.83;2.00;;;;;;;18.83;73.39;100447.19;5140702;27;20043;-64
2023/07/28 02:01:35;;;;;;;2.28;1.88;;;;;;;18.84;73.44;100446.09;5135328;27;20092;-64
2023/07/28 02:04:04;;;;;;;2.67;2.03;;;;;;;18.84;73.12;100445.28;5140753;27;20331;-65
2023/07/28 02:06:32;;;;;;;3.50;1.92;;;;;;;18.84;73.25;100448.81;5138075;27;20433;-64
2023/07/28 02:09:01;;;;;;;3.05;2.38;;;;;;;18.84;73.62;100446.09;5138741;27;20137;-64
2023/07/28 02:11:28;;;;;;;2.53;2.13;;;;;;;18.84;73.15;100446.09;5137161;27;20062;-64
2023/07/28 02:13:58;;;;;;;2.47;2.08;;;;;;;18.83;73.44;100440.94;5140285;27;20043;-64
2023/07/28 02:16:27;;;;;;;6.43;2.33;;;;;;;18.80;73.54;100439.59;5140947;27;20039;-64
2023/07/28 02:18:56;;;;;;;3.33;2.63;;;;;;;18.83;73.66;100440.94;5136554;27;20084;-64
2023/07/28 02:21:24;;;;;;;5.57;2.72;;;;;;;18.83;73.56;100447.19;5140260;28;20059;-64
2023/07/28 02:23:52;;;;;;;6.53;3.55;;;;;;;18.82;74.11;100445.56;5136857;28;20077;-64
2023/07/28 02:26:19;;;;;;;5.45;3.47;;;;;;;18.82;73.89;100452.94;5139774;28;20113;-64
2023/07/28 02:28:47;;;;;;;3.85;2.60;;;;;;;18.80;74.29;100464.09;5138130;28;20054;-65
2023/07/28 02:31:15;;;;;;;6.47;3.08;;;;;;;18.81;73.98;100465.72;5134599;28;20051;-64
2023/07/28 02:33:43;;;;;;;5.38;3.83;;;;;;;18.80;74.40;100464.09;5137656;28;20051;-65
2023/07/28 02:36:12;;;;;;;3.47;2.95;;;;;;;18.80;73.79;100447.75;5139273;28;20073;-64
2023/07/28 02:38:40;;;;;;;5.38;4.10;;;;;;;18.79;73.99;100453.50;5138865;27;20058;-64
2023/07/28 02:41:08;;;;;;;4.97;4.07;;;;;;;18.80;73.66;100466.00;5139544;28;20066;-64
2023/07/28 02:43:35;;;;;;;8.85;4.68;;;;;;;18.80;73.72;100457.84;5136668;28;20039;-64
2023/07/28 02:46:03;;;;;;;5.10;3.20;;;;;;;18.80;73.63;100463.28;5138612;28;20076;-65
2023/07/28 02:48:31;;;;;;;6.00;4.60;;;;;;;18.80;73.41;100463.28;5138585;28;20050;-64
2023/07/28 02:50:59;;;;;;;5.57;4.57;;;;;;;18.80;73.41;100474.19;5132156;28;20076;-64
2023/07/28 02:53:28;;;;;;;5.20;4.15;;;;;;;18.80;73.60;100464.09;5138686;28;20104;-64
2023/07/28 02:55:57;;;;;;;7.03;4.32;;;;;;;18.80;73.78;100471.47;5139943;28;20069;-64
2023/07/28 02:58:25;;;;;;;8.32;5.05;;;;;;;18.80;73.50;100472.28;5138819;28;20088;-64
2023/07/28 03:00:53;;;;;;;5.85;4.85;;;;;;;18.81;73.52;100475.81;5138638;28;20048;-64
2023/07/28 03:03:21;;;;;;;4.53;3.97;;;;;;;18.80;73.50;100474.19;5140050;27;20047;-64
2023/07/28 03:05:53;;;;;;;5.32;4.13;;;;;;;18.80;73.59;100476.91;5138506;27;20062;-64
2023/07/28 03:08:21;;;;;;;5.10;4.57;;;;;;;18.80;73.56;100472.28;5140693;28;20051;-64
2023/07/28 03:10:51;;;;;;;6.30;4.55;;;;;;;18.80;73.34;100477.72;5139700;28;20079;-63
2023/07/28 03:13:18;;;;;;;5.53;4.78;;;;;;;18.79;73.41;100478.00;5138221;28;20108;-63
2023/07/28 03:15:46;;;;;;;6.40;4.82;;;;;;;18.80;73.59;100480.44;5142026;27;20055;-63
2023/07/28 03:18:14;;;;;;;5.85;4.95;;;;;;;18.79;73.51;100475.28;5142866;27;20059;-64
2023/07/28 03:20:42;;;;;;;5.47;4.68;;;;;;;18.80;73.18;100472.28;5143862;27;20072;-64
2023/07/28 03:23:09;;;;;;;7.07;4.50;;;;;;;18.81;73.33;100475.81;5142147;27;20048;-63
2023/07/28 03:25:37;;;;;;;7.72;5.78;;;;;;;18.81;73.56;100481.25;5142153;27;20043;-63
2023/07/28 03:28:06;;;;;;;6.82;5.03;;;;;;;18.80;73.49;100479.63;5140152;27;20054;-64
2023/07/28 03:30:34;;;;;;;7.40;5.55;;;;;;;18.79;73.30;100478.81;5137543;27;20047;-64
2023/07/28 03:33:02;;;;;;;6.13;5.15;;;;;;;18.79;73.43;100476.09;5139779;27;20051;-64
2023/07/28 03:35:30;;;;;;;7.40;5.10;;;;;;;18.79;73.44;100483.44;5142717;27;20361;-64
2023/07/28 03:37:57;;;;;;;8.55;5.40;;;;;;;18.79;73.61;100486.16;5142111;27;20051;-64
2023/07/28 03:40:25;;;;;;;8.30;5.05;;;;;;;18.79;73.58;100488.91;5141672;27;20043;-64
2023/07/28 03:42:53;;;;;;;7.45;5.55;;;;;;;18.78;73.73;100488.09;5143198;27;20552;-64
2023/07/28 03:45:23;;;;;;;7.68;4.72;;;;;;;18.77;73.59;100497.34;5141019;27;20042;-64
2023/07/28 03:47:50;;;;;;;7.60;5.07;;;;;;;18.78;73.39;100490.00;5140706;27;20080;-64
2023/07/28 03:50:18;;;;;;;6.53;5.22;;;;;;;18.77;73.65;100497.34;5144448;27;20051;-65
2023/07/28 03:52:46;;;;;;;6.63;5.60;;;;;;;18.78;73.26;100503.59;5145284;27;20385;-65
2023/07/28 03:55:14;;;;;;;6.50;5.65;;;;;;;18.77;73.42;100502.78;5142139;27;20111;-63
2023/07/28 03:57:42;;;;;;;8.05;6.53;;;;;;;18.76;73.76;100498.44;5146687;27;20043;-64
2023/07/28 04:00:11;;;;;;;10.75;6.50;;;;;;;18.77;74.06;100501.97;5145891;27;20043;-64
2023/07/28 04:02:40;;;;;;;8.38;5.57;;;;;;;18.74;73.90;100500.63;5145958;27;20043;-64
2023/07/28 04:05:08;;;;;;;6.63;5.63;;;;;;;18.75;73.89;100505.00;5141313;27;20122;-64
2023/07/28 04:07:36;;;;;;;8.35;5.93;;;;;;;18.75;73.61;100509.63;5146012;27;20047;-64
2023/07/28 04:10:05;;;;;;;6.35;5.40;;;;;;;18.73;73.47;100504.47;5146416;27;20047;-64
2023/07/28 04:12:33;;;;;;;9.38;6.85;;;;;;;18.74;73.78;100502.53;5144537;27;20048;-64
2023/07/28 04:15:01;;;;;;;9.68;6.75;;;;;;;18.75;74.08;100502.25;5145545;27;20159;-64
2023/07/28 04:17:29;;;;;;;8.63;6.82;;;;;;;18.74;73.98;100503.38;5142036;27;20043;-64
2023/07/28 04:19:58;;;;;;;9.27;7.10;;;;;;;18.74;73.73;100502.53;5135431;27;20045;-64
2023/07/28 04:22:26;;;;;;;8.23;7.25;;;;;;;18.74;73.93;100503.38;5139910;27;20047;-63
2023/07/28 04:24:54;;;;;;;8.00;6.57;;;;;;;18.73;73.74;100499.00;5140293;27;20096;-63
2023/07/28 04:27:22;;;;;;;8.95;7.50;;;;;;;18.74;73.84;100497.09;5140068;27;20047;-63
2023/07/28 04:29:50;;;;;;;11.55;8.00;;;;;;;18.73;74.01;100503.66;5140371;27;20100;-64
2023/07/28 04:32:17;;;;;;;11.43;8.23;;;;;;;18.71;74.08;100498.47;5139383;27;20132;-63
2023/07/28 04:34:45;;;;;;;10.52;8.07;;;;;;;18.71;74.11;100493.03;5137662;27;20044;-64
2023/07/28 04:37:14;;;;;;;10.90;8.82;;;;;;;18.71;74.19;100498.47;5141196;27;20047;-64
2023/07/28 04:39:42;;;;;;;10.20;8.40;;;;;;;18.72;74.35;100496.56;5139912;27;20074;-63
2023/07/28 04:42:10;;;;;;;9.90;8.88;;;;;;;18.71;73.93;100492.22;5143227;27;20123;-64
2023/07/28 04:44:39;;;;;;;12.27;9.80;;;;;;;18.71;74.09;100495.75;5141168;27;20047;-64
2023/07/28 04:47:07;;;;;;;10.48;9.07;;;;;;;18.70;73.96;100496.84;5140398;27;20078;-64
2023/07/28 04:49:35;;;;;;;11.18;8.35;;;;;;;18.69;74.00;100497.97;5138424;27;20053;-64
2023/07/28 04:52:03;;;;;;;10.55;9.45;;;;;;;18.71;73.71;100497.66;5143651;27;20043;-64
2023/07/28 04:54:32;;;;;;;10.00;9.00;;;;;;;18.71;73.65;100506.66;5137049;27;20070;-63
2023/07/28 04:56:59;;;;;;;10.75;8.95;;;;;;;18.71;73.70;100503.13;5140138;27;20519;-63
2023/07/28 04:59:27;;;;;;;12.07;10.23;;;;;;;18.70;73.59;100513.19;5140871;27;20058;-64
2023/07/28 05:01:55;;;;;;;10.60;9.48;;;;;;;18.71;73.57;100509.38;5140290;27;20068;-64
2023/07/28 05:04:23;;;;;;;11.00;9.43;;;;;;;18.71;73.46;100520.25;4787867;27;9999736;-65
2023/07/28 05:06:50;;;;;;;10.55;8.40;;;;;;;18.72;73.14;100518.34;5138735;27;20051;-64
2023/07/28 05:09:19;;;;;;;12.00;10.57;;;;;;;18.72;73.24;100515.63;5143331;27;20047;-64
2023/07/28 05:11:48;;;;;;;14.65;11.07;;;;;;;18.72;73.39;100521.06;5138050;27;20131;-65
2023/07/28 05:14:16;;;;;;;13.07;9.57;;;;;;;18.72;73.12;100526.53;5139990;27;20380;-65
2023/07/28 05:16:43;;;;;;;12.30;9.48;;;;;;;18.71;73.21;100525.72;5142396;27;20054;-65
2023/07/28 05:19:13;;;;;;;12.32;10.50;;;;;;;18.73;73.05;100531.69;5138074;27;20059;-63
2023/07/28 05:21:40;;;;;;;12.00;9.35;;;;;;;18.72;72.81;100526.53;5140509;27;20043;-65
2023/07/28 05:24:08;;;;;;;11.93;10.32;;;;;;;18.72;73.01;100537.41;5143592;27;20054;-62
2023/07/28 05:26:36;;;;;;;14.75;11.60;;;;;;;18.73;72.85;100544.47;5138683;27;20047;-64
2023/07/28 05:29:05;;;;;;;14.45;10.68;;;;;;;18.71;73.20;100544.75;5141918;27;20047;-62
2023/07/28 05:31:33;;;;;;;15.38;12.30;;;;;;;18.73;73.15;100549.94;5141720;27;20069;-63
2023/07/28 05:34:01;;;;;;;15.88;14.07;;;;;;;18.71;73.61;100547.50;5140154;27;20036;-63
2023/07/28 05:36:29;;;;;;;18.30;13.80;;;;;;;18.67;73.21;100540.97;5143324;27;20050;-63
2023/07/28 05:38:58;;;;;;;16.48;12.43;;;;;;;18.71;73.44;100541.22;5140649;27;20057;-64
2023/07/28 05:41:27;;;;;;;13.98;12.40;;;;;;;18.71;73.05;100550.22;5139416;27;20072;-64
2023/07/28 05:43:55;;;;;;;15.48;11.90;;;;;;;18.72;73.00;100556.47;5136726;27;20104;-64
2023/07/28 05:46:24;;;;;;;13.15;11.70;;;;;;;18.72;72.98;100554.56;5140073;27;20050;-63
2023/07/28 05:48:52;;;;;;;16.67;10.90;;;;;;;18.73;72.80;100547.19;5138914;27;20130;-64
2023/07/28 05:51:19;;;;;;;14.32;11.13;;;;;;;18.74;72.50;100554.28;5141138;27;20043;-65
2023/07/28 05:53:47;;;;;;;11.00;9.77;;;;;;;18.74;72.11;100555.09;5141519;27;20487;-67
2023/07/28 05:56:15;;;;;;;12.48;10.18;;;;;;;18.74;72.02;100567.88;5131082;27;20047;-65
2023/07/28 05:58:43;;;;;;;12.23;10.82;;;;;;;18.74;72.30;100565.97;5136649;27;20067;-63
2023/07/28 06:01:10;;;;;;;14.25;11.82;;;;;;;18.76;72.30;100562.97;5137981;27;20296;-65
2023/07/28 06:03:40;;;;;;;11.80;10.48;;;;;;;18.73;72.68;100560.81;5136163;27;20047;-64
2023/07/28 06:06:12;;;;;;;12.75;9.90;;;;;;;18.74;72.66;100560.53;5139925;27;20058;-65
2023/07/28 06:08:40;;;;;;;11.18;9.98;;;;;;;18.73;72.61;100564.34;5140569;27;20051;-64
2023/07/28 06:11:08;;;;;;;12.55;9.90;;;;;;;18.74;72.67;100567.88;5140961;28;20055;-64
2023/07/28 06:13:35;;;;;;;12.68;10.02;;;;;;;18.73;72.94;100567.06;5140973;27;20043;-65
2023/07/28 06:16:03;;;;;;;11.70;9.60;;;;;;;18.73;73.12;100561.63;5138172;27;20077;-64
2023/07/28 06:18:31;;;;;;;12.20;9.30;;;;;;;18.73;73.30;100567.06;5144317;27;20043;-65
2023/07/28 06:21:00;;;;;;;11.30;8.43;;;;;;;18.73;73.00;100569.78;5137257;27;20072;-63
2023/07/28 06:23:28;;;;;;;11.13;9.20;;;;;;;18.74;72.58;100565.16;5138251;27;20073;-63
2023/07/28 06:25:56;;;;;;;9.45;7.65;;;;;;;18.75;73.08;100564.06;5139283;28;20039;-63
2023/07/28 06:28:23;;;;;;;10.20;8.27;;;;;;;18.75;72.92;100574.97;5136252;27;20107;-63
2023/07/28 06:30:55;;;;;;;8.55;7.65;;;;;;;18.75;73.29;100575.78;5136548;27;20047;-63
2023/07/28 06:33:23;;;;;;;10.27;7.40;;;;;;;18.72;72.95;100570.06;5139521;27;20043;-63
2023/07/28 06:35:52;;;;;;;8.45;6.80;;;;;;;18.77;72.74;100570.84;5136102;27;20088;-64
2023/07/28 06:38:21;;;;;;;8.60;7.03;;;;;;;18.77;73.18;100575.50;5137996;27;20062;-64
2023/07/28 06:40:49;;;;;;;8.45;6.63;;;;;;;18.76;73.13;100577.41;5137123;27;20043;-62
2023/07/28 06:43:19;;;;;;;8.13;6.20;;;;;;;18.76;73.21;100582.03;5133724;28;20047;-63
2023/07/28 06:45:46;;;;;;;8.88;6.53;;;;;;;18.76;73.33;100588.28;5142801;28;20088;-64
2023/07/28 06:48:14;;;;;;;10.35;6.70;;;;;;;18.76;73.25;100585.56;5137500;27;20059;-63
2023/07/28 06:50:42;;;;;;;10.95;5.80;;;;;;;18.77;74.19;100586.38;5137773;27;20361;-63
2023/07/28 06:53:10;;;;;;;11.57;6.13;;;;;;;18.76;74.71;100580.13;5145171;27;20152;-63
2023/07/28 06:55:39;;;;;;;8.05;5.78;;;;;;;18.75;74.68;100586.66;5142514;27;20555;-63
2023/07/28 06:58:07;;;;;;;7.57;5.55;;;;;;;18.75;74.79;100581.22;5144202;27;20469;-64
2023/07/28 07:00:35;;;;;;;10.65;5.45;;;;;;;18.78;74.13;100583.38;5144322;27;20045;-63
2023/07/28 07:03:03;;;;;;;10.05;5.15;;;;;;;18.79;74.10;100587.72;5144374;27;20445;-63
2023/07/28 07:05:32;;;;;;;9.40;4.90;;;;;;;18.79;73.92;100592.34;5138724;27;20053;-63
2023/07/28 07:08:01;;;;;;;6.78;5.43;;;;;;;18.78;74.70;100591.53;5140523;27;20043;-64
2023/07/28 07:10:30;;;;;;;8.13;5.43;;;;;;;18.78;74.58;100597.00;5144309;27;20050;-64
2023/07/28 07:12:59;;;;;;;9.52;4.80;;;;;;;18.79;74.36;100606.78;5135156;27;20075;-63
2023/07/28 07:15:27;;;;;;;6.30;4.60;;;;;;;18.81;73.80;100601.88;5143270;27;20051;-63
2023/07/28 07:17:55;;;;;;;7.32;4.32;;;;;;;18.81;73.74;100609.22;5141698;27;20047;-63
2023/07/28 07:20:23;;;;;;;5.43;4.07;;;;;;;18.82;74.20;100608.13;5142192;27;20078;-63
2023/07/28 07:22:51;;;;;;;7.10;4.47;;;;;;;18.81;73.92;100606.50;5141766;27;20111;-64
2023/07/28 07:25:20;;;;;;;5.88;4.53;;;;;;;18.83;73.43;100605.13;5142358;27;20041;-63
2023/07/28 07:27:48;;;;;;;6.82;3.85;;;;;;;18.84;73.44;100612.19;5141877;27;20063;-63
2023/07/28 07:30:18;;;;;;;6.18;4.53;;;;;;;18.84;74.04;100606.75;5139854;27;20055;-63
2023/07/28 07:32:45;;;;;;;4.82;4.03;;;;;;;18.85;74.13;100610.28;5138625;27;20066;-64
2023/07/28 07:35:14;;;;;;;5.53;4.20;;;;;;;18.85;74.12;100607.56;5143211;27;20050;-64
2023/07/28 07:37:43;;;;;;;6.15;3.75;;;;;;;18.87;74.18;100618.19;5142649;27;20046;-64
2023/07/28 07:40:12;;;;;;;4.07;3.55;;;;;;;18.90;74.07;100618.41;5143055;27;20067;-66
2023/07/28 07:42:45;;;;;;;6.18;3.80;;;;;;;18.88;74.46;100620.63;5141363;27;20099;-64
2023/07/28 07:45:13;;;;;;;5.38;3.60;;;;;;;18.87;74.48;100619.00;5142808;27;20047;-64
2023/07/28 07:47:43;;;;;;;4.85;3.38;;;;;;;18.87;74.42;100627.16;5135278;27;20056;-64
2023/07/28 07:50:13;;;;;;;4.47;3.17;;;;;;;18.88;74.61;100625.25;5136376;27;20058;-65
2023/07/28 07:52:41;;;;;;;4.75;2.97;;;;;;;18.88;75.09;100619.81;5140569;27;20267;-64
2023/07/28 07:55:11;;;;;;;3.97;3.25;;;;;;;18.87;75.08;100627.16;5141364;27;20115;-65
2023/07/28 07:57:40;;;;;;;6.07;3.10;;;;;;;18.88;75.63;100625.25;5136912;27;20054;-65
2023/07/28 08:00:09;;;;;;;3.05;2.75;;;;;;;18.87;75.33;100635.31;5142110;27;20051;-63
2023/07/28 08:02:37;;;;;;;3.95;3.33;;;;;;;18.91;75.14;100630.13;5142662;27;20043;-63
2023/07/28 08:05:07;;;;;;;4.20;3.08;;;;;;;18.88;74.97;100619.81;5143959;27;20043;-64
2023/07/28 08:07:35;;;;;;;3.75;3.05;;;;;;;18.90;75.15;100634.75;5139542;27;20098;-64
2023/07/28 08:10:04;;;;;;;3.45;2.95;;;;;;;18.91;75.13;100635.56;5140996;27;20055;-64
2023/07/28 08:12:32;;;;;;;4.20;3.20;;;;;;;18.92;75.25;100639.94;5140981;27;20047;-63
2023/07/28 08:15:00;;;;;;;2.78;2.50;;;;;;;18.93;75.20;100638.84;5140616;27;20076;-65
2023/07/28 08:17:27;;;;;;;5.38;3.00;;;;;;;18.93;74.98;100641.56;5141452;27;20043;-64
2023/07/28 08:19:55;;;;;;;3.67;2.58;;;;;;;18.92;74.55;100639.94;5141473;27;20053;-64
2023/07/28 08:22:25;;;;;;;4.22;2.92;;;;;;;18.93;75.15;100642.38;5139197;27;20040;-63
2023/07/28 08:24:53;;;;;;;3.28;2.50;;;;;;;18.94;75.12;100648.63;5140340;27;20047;-64
2023/07/28 08:27:21;;;;;;;3.78;2.63;;;;;;;18.93;74.95;100647.81;5141794;27;20047;-65
2023/07/28 08:29:49;;;;;;;4.72;3.17;;;;;;;18.94;75.43;100645.91;5139736;27;20579;-63
2023/07/28 08:32:16;;;;;;;4.25;2.28;;;;;;;18.94;75.17;100643.19;5138641;27;20058;-64
2023/07/28 08:34:45;;;;;;;3.13;2.10;;;;;;;18.95;74.90;100648.34;5145933;27;20092;-64
2023/07/28 08:37:13;;;;;;;5.90;2.60;;;;;;;18.95;75.22;100653.78;4781964;27;10000482;-63
2023/07/28 08:39:42;;;;;;;4.13;2.50;;;;;;;18.98;75.54;100652.41;5141558;27;20043;-64
2023/07/28 08:42:10;;;;;;;4.05;2.38;;;;;;;18.98;75.27;100655.94;5139575;27;20058;-65
2023/07/28 08:44:38;;;;;;;5.40;2.28;;;;;;;18.98;75.04;100660.59;5141511;27;20469;-65
2023/07/28 08:47:06;;;;;;;6.70;2.38;;;;;;;19.00;74.92;100652.94;5141423;27;20328;-67
2023/07/28 08:49:36;;;;;;;4.60;2.33;;;;;;;19.00;74.64;100659.22;5137320;27;20047;-63
2023/07/28 08:52:05;;;;;;;2.38;1.77;;;;;;;19.01;74.54;100652.66;5140638;27;20043;-66
2023/07/28 08:54:33;;;;;;;2.83;2.35;;;;;;;19.02;74.28;100657.00;5140011;27;20050;-64
2023/07/28 08:57:02;;;;;;;2.58;2.15;;;;;;;19.03;74.87;100652.38;5141009;27;20487;-66
2023/07/28 08:59:30;;;;;;;2.95;2.35;;;;;;;19.03;75.64;100655.91;5140530;27;20460;-69
2023/07/28 09:01:59;;;;;;;3.38;2.95;;;;;;;19.03;75.72;100655.91;5142547;27;20046;-65
2023/07/28 09:04:27;;;;;;;3.08;2.67;;;;;;;19.04;75.52;100659.47;5139685;27;20095;-65
2023/07/28 09:06:55;;;;;;;6.20;2.50;;;;;;;19.06;75.38;100662.72;5140199;27;20091;-64
2023/07/28 09:09:23;;;;;;;3.78;2.80;;;;;;;19.05;75.10;100656.44;5134954;27;20557;-65
2023/07/28 09:11:52;;;;;;;3.20;2.38;;;;;;;19.07;74.94;100667.03;5133037;27;20549;-65
2023/07/28 09:14:24;;;;;;;3.60;2.30;;;;;;;19.05;75.07;100663.81;5135412;27;20054;-65
2023/07/28 09:16:53;;;;;;;3.03;2.38;;;;;;;19.09;75.59;100667.56;5138156;27;20047;-65
2023/07/28 09:19:22;;;;;;;4.03;2.40;;;;;;;19.10;75.91;100669.19;5144625;27;20046;-65
2023/07/28 09:21:59;;;;;;;3.25;2.17;;;;;;;19.09;76.63;100659.41;5143063;27;20051;-65
2023/07/28 09:24:32;;;;;;;3.70;2.40;;;;;;;19.11;76.13;100663.47;5140983;27;20099;-65
2023/07/28 09:27:01;;;;;;;2.70;2.33;;;;;;;19.10;76.04;100666.47;5146323;27;20134;-65
2023/07/28 09:29:31;;;;;;;3.88;2.33;;;;;;;19.12;75.64;100661.56;5139875;27;20229;-64
2023/07/28 09:32:04;;;;;;;4.38;2.63;;;;;;;19.13;75.46;100664.00;5141367;27;20051;-65
2023/07/28 09:34:33;;;;;;;2.90;2.17;;;;;;;19.15;75.69;100667.25;5159953;27;20050;-65
2023/07/28 09:37:01;;;;;;;3.10;2.25;;;;;;;19.17;75.35;100665.06;5142527;27;20076;-65
2023/07/28 09:39:30;;;;;;;2.45;2.20;;;;;;;19.18;75.38;100672.13;5136060;27;20101;-66
2023/07/28 09:41:59;;;;;;;2.50;2.25;;;;;;;19.21;75.90;100669.94;5139031;27;20100;-66
2023/07/28 09:44:27;;;;;;;3.47;2.30;;;;;;;19.20;76.24;100677.28;5141428;27;20047;-65
2023/07/28 09:46:57;;;;;;;4.20;2.58;;;;;;;19.22;76.28;100679.75;5141496;27;20059;-66
2023/07/28 09:49:28;;;;;;;2.25;2.05;;;;;;;19.23;75.97;100671.28;5143915;27;20047;-65
2023/07/28 09:52:04;;;;;;;5.18;2.10;;;;;;;19.25;75.80;100665.53;5143539;27;20051;-65
2023/07/28 09:54:38;;;;;;;2.88;2.30;;;;;;;19.26;75.71;100678.06;5129741;27;20516;-65
2023/07/28 09:57:12;;;;;;;2.95;2.00;;;;;;;19.30;74.91;100685.41;5135080;27;20046;-66
2023/07/28 09:59:41;;;;;;;2.30;1.73;;;;;;;19.34;74.14;100672.84;5134594;27;20056;-68
2023/07/28 10:02:10;;;;;;;2.92;1.92;;;;;;;19.39;73.79;100678.25;5144360;27;20072;-65
2023/07/28 10:04:39;;;;;;;2.25;1.90;;;;;;;19.38;73.94;100679.34;5140547;27;20537;-63
2023/07/28 10:07:08;;;;;;;2.38;2.00;;;;;;;19.41;73.76;100686.13;5135369;27;20046;-65
2023/07/28 10:09:37;;;;;;;3.05;1.73;;;;;;;19.42;73.83;100685.03;5136472;27;20099;-64
2023/07/28 10:12:06;;;;;;;1.98;1.70;;;;;;;19.41;73.92;100686.94;5143821;27;20050;-64
2023/07/28 10:14:37;;;;;;;2.40;2.20;;;;;;;19.42;73.82;100680.41;5144302;27;20465;-64
2023/07/28 10:17:06;;;;;;;2.22;1.80;;;;;;;19.43;73.77;100678.50;5137203;28;20036;-63
2023/07/28 10:19:36;;;;;;;3.03;2.17;;;;;;;19.44;73.93;100685.56;5138658;27;20811;-64
2023/07/28 10:22:09;;;;;;;2.17;1.98;;;;;;;19.46;74.23;100686.09;5141337;28;20049;-64
2023/07/28 10:24:51;;;;;;;3.10;1.85;;;;;;;19.45;74.22;100682.56;5142129;27;20062;-63
2023/07/28 10:27:31;;;;;;;2.00;1.65;;;;;;;19.48;73.88;100690.16;5140247;27;20039;-64
2023/07/28 10:29:59;;;;;;;2.55;1.83;;;;;;;19.49;74.23;100689.06;5144734;27;20050;-65
2023/07/28 10:32:28;;;;;;;3.13;1.80;;;;;;;19.53;74.46;100691.25;5147753;27;20043;-66
2023/07/28 10:35:08;;;;;;;2.03;1.83;;;;;;;19.55;74.23;100681.69;5153121;27;20057;-65
2023/07/28 10:37:36;;;;;;;1.90;1.70;;;;;;;19.57;74.19;100687.66;5157519;27;20149;-66
2023/07/28 10:40:30;;;;;;;6.13;1.52;;;;;;;19.57;74.13;100676.75;5139559;27;20116;-66
2023/07/28 10:42:59;;;;;;;2.95;1.80;;;;;;;19.59;74.06;100676.47;5136830;27;20061;-66
2023/07/28 10:45:29;;;;;;;1.90;1.70;;;;;;;19.59;73.75;100669.13;5156135;27;20039;-66
2023/07/28 10:47:59;;;;;;;3.35;1.63;;;;;;;19.60;73.88;100675.38;5137417;27;20047;-66
2023/07/28 10:50:30;;;;;;;2.03;1.65;;;;;;;19.60;73.78;100676.19;5151608;27;20076;-65
2023/07/28 10:52:59;;;;;;;1.88;1.67;;;;;;;19.62;73.48;100681.38;5136141;27;20112;-65
2023/07/28 10:55:28;;;;;;;5.10;1.80;;;;;;;19.65;73.44;100680.78;5140392;27;20556;-65
2023/07/28 10:57:58;;;;;;;1.42;1.33;;;;;;;19.67;73.63;100682.13;5147577;27;20106;-65
2023/07/28 11:00:26;;;;;;;2.13;1.75;;;;;;;19.68;73.48;100681.03;5143361;27;20157;-65
2023/07/28 11:02:55;;;;;;;2.00;1.70;;;;;;;19.70;73.40;100680.75;5148705;27;20073;-66
2023/07/28 11:05:25;;;;;;;2.60;1.50;;;;;;;19.72;73.36;100673.91;5142893;27;20100;-65
2023/07/28 11:07:56;;;;;;;1.75;1.20;;;;;;;19.75;73.22;100683.44;5147430;27;20035;-65
2023/07/28 11:10:25;;;;;;;2.03;1.42;;;;;;;19.79;72.86;100679.03;5136052;27;20047;-65
2023/07/28 11:12:53;;;;;;;1.63;1.50;;;;;;;19.80;73.15;100676.00;5143054;27;20080;-65
2023/07/28 11:15:21;;;;;;;2.55;1.58;;;;;;;19.81;73.53;100677.63;5147448;27;20092;-65
2023/07/28 11:17:50;;;;;;;2.03;1.40;;;;;;;19.83;73.63;100686.34;5143744;27;20043;-66
2023/07/28 11:20:20;;;;;;;2.15;1.33;;;;;;;19.86;73.25;100674.06;5145265;27;20076;-65
2023/07/28 11:22:52;;;;;;;1.15;1.05;;;;;;;19.87;73.08;100678.41;5143998;27;20051;-65
2023/07/28 11:25:22;;;;;;;1.85;1.50;;;;;;;19.90;73.00;100679.75;5147440;27;20047;-65
2023/07/28 11:27:51;;;;;;;1.48;1.23;;;;;;;19.89;72.97;100670.75;5146880;27;20055;-65